Data for 05/09/2016

Time Sea-Level Adjusted Pressure Absolute Pressure Temperature Relative Humidity Dew Point   
(mb) (inHg) (mb) (inHg) (C) (F) (%) (C) (F)
00:05 1006 29.71 835 24.66 14.8 58.7 41 1.7 35
00:10 1006 29.71 835 24.66 14.7 58.5 42 1.9 35.5
00:15 1006 29.71 835 24.66 14.5 58.2 42 1.9 35.4
00:20 1006 29.71 835 24.66 14.4 57.9 43 1.9 35.4
00:25 1006 29.71 835 24.66 14.3 57.7 42 1.8 35.2
00:30 1006 29.71 835 24.66 14.2 57.5 43 1.7 35.1
00:35 1006 29.71 835 24.66 14.1 57.3 43 1.7 35.1
00:40 1006 29.71 835 24.66 13.9 57.1 44 1.8 35.3
00:45 1006 29.71 835 24.66 13.8 56.8 43 1.6 34.8
00:50 1006 29.71 835 24.66 13.7 56.7 43 1.6 34.8
00:55 1006 29.71 835 24.66 13.6 56.4 45 1.8 35.3
01:00 1006 29.71 835 24.66 13.4 56.1 44 1.6 34.8
01:05 1006 29.71 835 24.66 13.3 56 45 1.6 34.8
01:10 1006 29.71 835 24.66 13.2 55.8 45 1.6 34.9
01:15 1006 29.71 835 24.66 13.1 55.6 45 1.4 34.6
01:20 1006 29.71 835 24.66 13 55.4 45 1.5 34.7
01:25 1006 29.71 836 24.69 12.8 55.1 45 1.3 34.4
01:30 1006 29.71 836 24.69 12.7 54.9 45 1 33.8
01:35 1006 29.71 836 24.69 12.7 54.8 44 0.9 33.7
01:40 1006 29.71 836 24.69 12.6 54.7 44 0.8 33.5
01:45 1006 29.71 835 24.66 12.6 54.6 44 0.6 33.1
01:50 1006 29.71 835 24.66 12.7 54.8 42 0.2 32.4
01:55 1006 29.71 835 24.66 12.7 54.9 41 0 32
02:00 1006 29.71 836 24.69 12.8 55.1 41 0.1 32.1
02:05 1006 29.71 836 24.69 12.8 55 42 0.1 32.2
02:10 1006 29.71 836 24.69 12.6 54.7 42 0.2 32.3
02:15 1006 29.71 836 24.69 12.5 54.4 42 0.1 32.2
02:20 1006 29.71 836 24.69 12.3 54.1 43 0.2 32.3
02:25 1006 29.71 836 24.69 12.1 53.8 44 0.2 32.4
02:30 1006 29.71 836 24.69 11.9 53.4 45 0.3 32.6
02:35 1006 29.71 836 24.69 11.6 52.9 46 0.3 32.6
02:40 1007 29.74 836 24.69 11.4 52.5 47 0.5 32.8
02:45 1007 29.74 836 24.69 11.1 51.9 48 0.6 33.1
02:50 1007 29.74 836 24.69 10.6 51.1 49 0.3 32.6
02:55 1007 29.74 836 24.69 10.5 50.9 49 0.3 32.6
03:00 1007 29.74 836 24.69 10.3 50.6 50 0.4 32.8
03:05 1007 29.74 836 24.69 10 50 53 0.8 33.4
03:10 1007 29.74 836 24.69 9.6 49.2 53 0.5 32.9
03:15 1007 29.74 836 24.69 9.7 49.5 52 0.5 32.9
03:20 1007 29.74 836 24.69 10 49.9 52 0.5 32.9
03:25 1007 29.74 836 24.69 10.1 50.1 52 0.7 33.3
03:30 1007 29.74 836 24.69 10 50.1 53 0.9 33.6
03:35 1007 29.74 836 24.69 9.9 49.9 54 1.1 34
03:40 1007 29.74 836 24.69 9.9 49.8 55 1.2 34.2
03:45 1007 29.74 836 24.69 9.9 49.7 55 1.4 34.5
03:50 1007 29.74 836 24.69 9.7 49.5 57 1.6 34.8
03:55 1007 29.74 836 24.69 9.5 49 57 1.5 34.7
04:00 1007 29.74 836 24.69 9.4 48.9 58 1.6 34.8
04:05 1007 29.74 836 24.69 9.3 48.7 59 1.7 35
04:10 1007 29.74 836 24.69 9.3 48.7 59 1.7 35
04:15 1007 29.74 836 24.69 9.2 48.6 59 1.8 35.2
04:20 1007 29.74 836 24.69 9.1 48.4 60 1.9 35.4
04:25 1007 29.74 836 24.69 9 48.2 61 1.9 35.4
04:30 1007 29.74 836 24.69 8.9 48.1 61 1.9 35.5
04:35 1007 29.74 836 24.69 8.9 47.9 62 2 35.5
04:40 1007 29.74 836 24.69 8.8 47.9 62 1.9 35.5
04:45 1007 29.74 836 24.69 8.8 47.9 62 1.9 35.4
04:50 1007 29.74 836 24.69 8.8 47.8 62 1.8 35.3
04:55 1007 29.74 836 24.69 8.7 47.6 63 1.9 35.5
05:00 1007 29.74 836 24.69 8.5 47.3 64 2 35.6
05:05 1007 29.74 837 24.72 8.2 46.8 65 2 35.6
05:10 1007 29.74 837 24.72 8 46.4 65 1.9 35.4
05:15 1007 29.74 837 24.72 7.9 46.1 66 1.9 35.3
05:20 1007 29.74 837 24.72 7.9 46.1 65 1.7 35.1
05:25 1007 29.74 837 24.72 7.9 46.3 65 1.8 35.2
05:30 1007 29.74 837 24.72 8 46.3 65 1.7 35.1
05:35 1007 29.74 837 24.72 8 46.4 64 1.5 34.8
05:40 1008 29.77 837 24.72 8 46.4 63 1.5 34.7
05:45 1008 29.77 837 24.72 8.1 46.5 63 1.4 34.6
05:50 1008 29.77 837 24.72 8 46.5 63 1.4 34.5
05:55 1008 29.77 837 24.72 7.9 46.3 63 1.3 34.4
06:00 1007 29.74 837 24.72 8 46.4 62 1.2 34.2
06:05 1007 29.74 837 24.72 8.1 46.6 62 1.4 34.5
06:10 1008 29.77 837 24.72 8 46.3 62 1.3 34.3
06:15 1008 29.77 837 24.72 7.8 46 64 1.4 34.5
06:20 1008 29.77 837 24.72 7.7 45.8 64 1.3 34.3
06:25 1008 29.77 837 24.72 7.6 45.7 64 1.2 34.2
06:30 1008 29.77 837 24.72 7.6 45.7 63 1.1 34
06:35 1008 29.77 837 24.72 7.6 45.6 65 1.4 34.5
06:40 1008 29.77 837 24.72 7.3 45.2 65 1.2 34.1
06:45 1008 29.77 837 24.72 7.4 45.2 64 1 33.9
06:50 1008 29.77 837 24.72 7.4 45.2 64 1.1 33.9
06:55 1008 29.77 837 24.72 7.2 45 65 1 33.8
07:00 1008 29.77 837 24.72 7.4 45.2 65 1.2 34.2
07:05 1008 29.77 837 24.72 7.3 45.1 65 1.1 34
07:10 1008 29.77 837 24.72 7.5 45.5 64 1.2 34.2
07:15 1008 29.77 837 24.72 7.3 45.2 66 1.4 34.5
07:20 1008 29.77 837 24.72 7.5 45.5 65 1.4 34.6
07:25 1008 29.77 837 24.72 7.5 45.5 65 1.4 34.5
07:30 1008 29.77 837 24.72 7.5 45.4 65 1.3 34.4
07:35 1008 29.77 837 24.72 7.8 46 65 1.7 35
07:40 1008 29.77 837 24.72 7.6 45.7 67 1.8 35.3
07:45 1008 29.77 837 24.72 7.5 45.5 67 1.8 35.2
07:50 1008 29.77 837 24.72 7.8 46 65 1.6 34.8
07:55 1007 29.74 837 24.72 8 46.4 65 1.9 35.5
08:00 1007 29.74 837 24.72 8.4 47.1 63 1.7 35.1
08:05 1007 29.74 837 24.72 9 48.1 59 1.4 34.5
08:10 1007 29.74 837 24.72 9 48.2 61 1.8 35.3
08:15 1007 29.74 837 24.72 8.7 47.6 61 1.7 35
08:20 1007 29.74 837 24.72 8.7 47.7 60 1.5 34.7
08:25 1008 29.77 837 24.72 8.6 47.4 61 1.5 34.8
08:30 1008 29.77 837 24.72 8.4 47.2 62 1.7 35.1
08:35 1008 29.77 837 24.72 8.1 46.6 64 1.7 35
08:40 1008 29.77 837 24.72 7.8 46.1 66 1.9 35.3
08:45 1008 29.77 837 24.72 7.6 45.6 67 1.9 35.5
08:50 1008 29.77 837 24.72 7.4 45.2 73 2.9 37.2
08:55 1008 29.77 837 24.72 6.8 44.2 77 3.1 37.6
09:00 1008 29.77 837 24.72 6.4 43.5 80 3.2 37.8
09:05 1008 29.77 837 24.72 6.2 43.1 81 3.2 37.8
09:10 1008 29.77 837 24.72 5.8 42.5 81 2.9 37.2
09:15 1008 29.77 837 24.72 5.5 41.9 84 3 37.4
09:20 1008 29.77 837 24.72 5.5 42 83 2.9 37.3
09:25 1008 29.77 837 24.72 5.4 41.7 83 2.7 36.9
09:30 1008 29.77 837 24.72 5.3 41.5 83 2.6 36.6
09:35 1008 29.77 837 24.72 5.1 41.2 85 2.8 37
09:40 1008 29.77 837 24.72 5.1 41.1 85 2.7 36.8
09:45 1008 29.77 837 24.72 5 41.1 86 2.8 37.1
09:50 1008 29.77 837 24.72 5 41.1 86 2.8 37.1
09:55 1008 29.77 837 24.72 5 41 86 2.9 37.1
10:00 1008 29.77 837 24.72 5 41 86 2.8 37
10:05 1008 29.77 837 24.72 5 41 86 2.9 37.2
10:10 1008 29.77 837 24.72 5 41 87 3 37.4
10:15 1008 29.77 837 24.72 5 41 87 3 37.4
10:20 1008 29.77 837 24.72 5 41 86 2.8 37
10:25 1008 29.77 837 24.72 4.7 40.5 87 2.8 37
10:30 1008 29.77 837 24.72 4.6 40.3 88 2.8 37
10:35 1008 29.77 837 24.72 4.6 40.3 87 2.7 36.8
10:40 1008 29.77 837 24.72 4.6 40.3 86 2.4 36.4
10:45 1008 29.77 837 24.72 4.6 40.2 86 2.5 36.4
10:50 1008 29.77 838 24.75 4.5 40.2 86 2.4 36.3
10:55 1008 29.77 838 24.75 4.1 39.3 88 2.2 36
11:00 1008 29.77 838 24.75 3.9 39 88 2 35.7
11:05 1009 29.8 838 24.75 3.8 38.8 88 2 35.6
11:10 1009 29.8 838 24.75 3.7 38.7 88 1.9 35.4
11:15 1009 29.8 838 24.75 3.4 38.2 88 1.6 34.9
11:20 1009 29.8 838 24.75 3.2 37.7 88 1.5 34.6
11:25 1009 29.8 838 24.75 3 37.4 88 1.2 34.2
11:30 1009 29.8 838 24.75 2.8 37 89 1 33.9
11:35 1009 29.8 838 24.75 2.6 36.7 90 1 33.9
11:40 1009 29.8 838 24.75 2.6 36.7 89 1 33.8
11:45 1009 29.8 838 24.75 2.4 36.2 90 0.8 33.5
11:50 1009 29.8 838 24.75 2.3 36.2 89 0.7 33.3
11:55 1009 29.8 838 24.75 2 35.6 91 0.7 33.2
12:00 1009 29.8 838 24.75 2.1 35.8 91 0.7 33.3
12:05 1009 29.8 838 24.75 2.1 35.7 90 0.6 33.1
12:10 1009 29.8 838 24.75 2.1 35.8 91 0.7 33.3
12:15 1009 29.8 838 24.75 2.4 36.3 90 0.9 33.6
12:20 1009 29.8 838 24.75 2.5 36.4 90 0.9 33.6
12:25 1009 29.8 838 24.75 2.5 36.5 90 1 33.7
12:30 1009 29.8 838 24.75 2.2 36 90 0.7 33.3
12:35 1009 29.8 839 24.78 2.3 36.1 90 0.8 33.5
12:40 1009 29.8 839 24.78 2.1 35.9 90 0.6 33.2
12:45 1010 29.83 839 24.78 2.1 35.8 90 0.6 33.2
12:50 1010 29.83 839 24.78 2 35.7 90 0.6 33
12:55 1010 29.83 839 24.78 1.9 35.4 91 0.5 33
13:00 1010 29.83 839 24.78 2 35.6 91 0.6 33.1
13:05 1010 29.83 839 24.78 1.9 35.5 90 0.5 32.8
13:10 1010 29.83 839 24.78 1.7 35.1 91 0.4 32.7
13:15 1010 29.83 839 24.78 1.5 34.7 91 0.2 32.3
13:20 1010 29.83 839 24.78 1.2 34.2 91 -0 32
13:25 1010 29.83 839 24.78 0.9 33.5 92 -0.3 31.4
13:30 1010 29.83 839 24.78 0.6 33 93 -0.5 31.1
13:35 1010 29.83 839 24.78 0.4 32.7 93 -0.6 31
13:40 1010 29.83 839 24.78 0.4 32.7 93 -0.6 31
13:45 1010 29.83 839 24.78 0.3 32.6 94 -0.6 31
13:50 1010 29.83 840 24.81 0.2 32.4 94 -0.7 30.8
13:55 1011 29.85 840 24.81 0.1 32.2 94 -0.7 30.7
14:00 1011 29.85 840 24.81 0.1 32.2 94 -0.7 30.7
14:05 1011 29.85 840 24.81 0.1 32.1 95 -0.7 30.7
14:10 1011 29.85 840 24.81 0.1 32.2 95 -0.7 30.8
14:15 1011 29.85 840 24.81 0.1 32.2 95 -0.6 30.9
14:20 1011 29.85 840 24.81 0.1 32.2 95 -0.6 30.9
14:25 1011 29.85 840 24.81 0.1 32.2 95 -0.6 30.9
14:30 1011 29.85 840 24.81 0.1 32.2 95 -0.6 30.9
14:35 1011 29.85 840 24.81 0.2 32.3 95 -0.5 31
14:40 1011 29.85 840 24.81 0.3 32.5 95 -0.4 31.2
14:45 1011 29.85 840 24.81 0.3 32.5 95 -0.4 31.3
14:50 1011 29.85 840 24.81 0.3 32.6 95 -0.4 31.3
14:55 1011 29.85 840 24.81 0.4 32.8 95 -0.3 31.5
15:00 1011 29.85 840 24.81 0.5 32.8 95 -0.3 31.5
15:05 1011 29.85 840 24.81 0.4 32.7 95 -0.3 31.4
15:10 1011 29.85 840 24.81 0.4 32.7 95 -0.3 31.4
15:15 1011 29.85 840 24.81 0.4 32.6 95 -0.4 31.3
15:20 1011 29.85 840 24.81 0.3 32.5 95 -0.5 31.2
15:25 1011 29.85 841 24.83 0.2 32.4 95 -0.5 31
15:30 1011 29.85 841 24.83 0.2 32.3 95 -0.6 31
15:35 1011 29.85 841 24.83 0.2 32.3 95 -0.6 31
15:40 1012 29.88 841 24.83 0.2 32.4 95 -0.5 31.1
15:45 1012 29.88 841 24.83 0.2 32.4 95 -0.5 31.1
15:50 1012 29.88 841 24.83 0.2 32.4 95 -0.5 31.1
15:55 1012 29.88 841 24.83 0.3 32.5 95 -0.5 31.2
16:00 1012 29.88 841 24.83 0.3 32.5 95 -0.4 31.3
16:05 1012 29.88 841 24.83 0.3 32.5 95 -0.4 31.2
16:10 1012 29.88 841 24.83 0.1 32.3 95 -0.6 31
16:15 1012 29.88 841 24.83 0.1 32.3 95 -0.5 31
16:20 1012 29.88 841 24.83 0.2 32.4 95 -0.5 31.1
16:25 1012 29.88 841 24.83 0.2 32.3 95 -0.5 31.1
16:30 1012 29.88 841 24.83 0.2 32.4 95 -0.5 31.2
16:35 1012 29.88 841 24.83 0.3 32.5 95 -0.4 31.3
16:40 1012 29.88 842 24.86 0.3 32.6 95 -0.4 31.3
16:45 1012 29.88 842 24.86 0.3 32.6 95 -0.4 31.3
16:50 1013 29.91 842 24.86 0.3 32.5 95 -0.4 31.3
16:55 1013 29.91 842 24.86 0.2 32.3 95 -0.5 31.1
17:00 1013 29.91 842 24.86 0.2 32.3 95 -0.5 31.1
17:05 1013 29.91 842 24.86 0.1 32.2 95 -0.6 31
17:10 1013 29.91 842 24.86 0.1 32.2 95 -0.6 31
17:15 1013 29.91 842 24.86 0.1 32.3 95 -0.5 31
17:20 1013 29.91 842 24.86 0.1 32.2 95 -0.6 31
17:25 1013 29.91 842 24.86 0.1 32.2 95 -0.5 31
17:30 1013 29.91 842 24.86 0.2 32.3 95 -0.5 31.1
17:35 1013 29.91 842 24.86 0.2 32.4 95 -0.5 31.2
17:40 1013 29.91 842 24.86 0.2 32.4 95 -0.4 31.2
17:45 1013 29.91 842 24.86 0.2 32.3 95 -0.5 31.1
17:50 1013 29.91 842 24.86 0.2 32.3 95 -0.5 31.1
17:55 1013 29.91 842 24.86 0.2 32.3 95 -0.5 31.1
18:00 1013 29.91 842 24.86 0.1 32.3 95 -0.5 31
18:05 1013 29.91 842 24.86 0.1 32.2 95 -0.5 31
18:10 1013 29.91 842 24.86 0.2 32.3 95 -0.5 31.1
18:15 1013 29.91 842 24.86 0.2 32.3 95 -0.5 31.1
18:20 1013 29.91 842 24.86 0.2 32.4 96 -0.4 31.2
18:25 1013 29.91 842 24.86 0.2 32.4 95 -0.4 31.2
18:30 1013 29.91 842 24.86 0.2 32.4 95 -0.4 31.2
18:35 1013 29.91 843 24.89 0.2 32.4 95 -0.4 31.3
18:40 1013 29.91 843 24.89 0.2 32.3 95 -0.5 31.1
18:45 1013 29.91 843 24.89 0.2 32.3 96 -0.5 31.2
18:50 1013 29.91 843 24.89 0.2 32.3 95 -0.5 31.2
18:55 1013 29.91 843 24.89 0.2 32.3 96 -0.5 31.1
19:00 1014 29.94 843 24.89 0.2 32.3 95 -0.5 31.2
19:05 1014 29.94 843 24.89 0.2 32.3 96 -0.4 31.2
19:10 1014 29.94 843 24.89 0.1 32.2 96 -0.5 31.1
19:15 1014 29.94 843 24.89 0.1 32.2 96 -0.5 31.1
19:20 1014 29.94 843 24.89 0.1 32.2 96 -0.5 31.1
19:25 1014 29.94 843 24.89 0.1 32.2 96 -0.5 31.1
19:30 1014 29.94 843 24.89 0.1 32.3 96 -0.5 31.1
19:35 1014 29.94 843 24.89 0.1 32.2 96 -0.5 31.1
19:40 1014 29.94 843 24.89 0.1 32.3 96 -0.5 31.1
19:45 1014 29.94 843 24.89 0.2 32.3 96 -0.4 31.2
19:50 1014 29.94 843 24.89 0.2 32.3 96 -0.5 31.2
19:55 1014 29.94 843 24.89 0.2 32.3 96 -0.4 31.2
20:00 1014 29.94 843 24.89 0.2 32.3 96 -0.4 31.2
20:05 1014 29.94 843 24.89 0.2 32.3 96 -0.4 31.2
20:10 1014 29.94 843 24.89 0.2 32.3 96 -0.5 31.2
20:15 1014 29.94 843 24.89 0.2 32.3 96 -0.5 31.2
20:20 1014 29.94 843 24.89 0.1 32.3 96 -0.5 31.1
20:25 1014 29.94 843 24.89 0.1 32.2 96 -0.5 31.1
20:30 1014 29.94 843 24.89 0.1 32.2 96 -0.5 31.1
20:35 1014 29.94 843 24.89 0.1 32.2 96 -0.5 31.1
20:40 1014 29.94 844 24.92 0.1 32.2 96 -0.5 31.1
20:45 1014 29.94 844 24.92 0.1 32.2 96 -0.5 31.1
20:50 1015 29.97 844 24.92 0.1 32.2 96 -0.5 31.1
20:55 1015 29.97 844 24.92 0.2 32.3 96 -0.5 31.2
21:00 1015 29.97 844 24.92 0.1 32.3 96 -0.5 31.2
21:05 1015 29.97 844 24.92 0.2 32.3 96 -0.4 31.2
21:10 1015 29.97 844 24.92 0.2 32.3 96 -0.4 31.2
21:15 1015 29.97 844 24.92 0.1 32.3 96 -0.5 31.1
21:20 1015 29.97 844 24.92 0.1 32.2 96 -0.5 31.1
21:25 1015 29.97 844 24.92 0.1 32.1 96 -0.5 31.1
21:30 1015 29.97 844 24.92 0.1 32.1 96 -0.5 31
21:35 1015 29.97 844 24.92 0.1 32.1 96 -0.5 31.1
21:40 1015 29.97 844 24.92 0.1 32.1 96 -0.5 31
21:45 1015 29.97 844 24.92 0.1 32.2 96 -0.5 31
21:50 1015 29.97 844 24.92 0.1 32.1 96 -0.5 31
21:55 1015 29.97 844 24.92 0.1 32.2 96 -0.5 31.1
22:00 1015 29.97 844 24.92 0.1 32.1 96 -0.5 31
22:05 1015 29.97 844 24.92 0.1 32.1 96 -0.5 31
22:10 1015 29.97 844 24.92 0.1 32.2 96 -0.5 31.1
22:15 1015 29.97 844 24.92 0.1 32.2 96 -0.5 31.1
22:20 1015 29.97 844 24.92 0.1 32.1 96 -0.5 31
22:25 1015 29.97 844 24.92 0.1 32.1 96 -0.5 31.1
22:30 1015 29.97 844 24.92 0.1 32.1 96 -0.5 31
22:35 1015 29.97 844 24.92 0.1 32.1 96 -0.5 31.1
22:40 1015 29.97 844 24.92 0 32.1 96 -0.5 31
22:45 1015 29.97 844 24.92 0.1 32.1 96 -0.5 31
22:50 1015 29.97 844 24.92 0 32 96 -0.6 31
22:55 1015 29.97 844 24.92 0 32 96 -0.6 31
23:00 1015 29.97 844 24.92 0 32 96 -0.6 30.9
23:05 1015 29.97 844 24.92 -0 32 96 -0.6 30.9
23:10 1015 29.97 845 24.95 0 32 96 -0.6 30.9
23:15 1015 29.97 845 24.95 -0 32 96 -0.6 30.9
23:20 1015 29.97 845 24.95 -0 31.9 96 -0.6 30.9
23:25 1016 30 845 24.95 -0 32 96 -0.6 30.9
23:30 1016 30 845 24.95 -0 32 96 -0.6 30.9
23:35 1016 30 845 24.95 -0 32 96 -0.6 30.9
23:40 1016 30 845 24.95 0 32 96 -0.6 31
23:45 1016 30 845 24.95 -0 32 96 -0.6 30.9
23:50 1016 30 845 24.95 -0 32 96 -0.6 30.9
23:55 1016 30 845 24.95 -0 32 96 -0.6 30.9
24:00 1016 30 845 24.95 -0 31.9 96 -0.6 30.9